Time;durP1;ratioP1;P1;durP2;ratioP2;P2;SDS_P1;SDS_P2;PMS_P1;PMS_P2;Temp;Humidity;BMP_temperature;BMP_pressure;BME280_temperature;BME280_humidity;BME280_pressure;Samples;Min_cycle;Max_cycle;Signal;HPM_P1;HPM_P2
2023/02/07 00:01:45;;;;;;;29.67;12.80;;;3.50;99.90;;;;;;4095180;28;20047;-66
2023/02/07 00:03:46;;;;;;;24.15;12.38;;;3.50;99.90;;;;;;4094281;28;20043;-67
2023/02/07 00:05:47;;;;;;;27.58;12.50;;;3.50;99.90;;;;;;4096810;28;20145;-67
2023/02/07 00:07:48;;;;;;;23.00;11.20;;;3.50;99.90;;;;;;4097040;28;20079;-67
2023/02/07 00:09:49;;;;;;;25.98;12.65;;;3.50;99.90;;;;;;4095714;28;20042;-67
2023/02/07 00:11:49;;;;;;;27.50;12.30;;;3.50;99.90;;;;;;4097971;28;20035;-66
2023/02/07 00:13:53;;;;;;;27.50;13.23;;;3.50;99.90;;;;;;4094890;28;20446;-67
2023/02/07 00:15:54;;;;;;;24.33;12.65;;;3.40;99.90;;;;;;4094246;28;20031;-68
2023/02/07 00:17:54;;;;;;;27.08;13.10;;;3.40;99.90;;;;;;4096644;28;20114;-68
2023/02/07 00:19:55;;;;;;;26.05;13.13;;;3.40;99.90;;;;;;4096668;28;20086;-67
2023/02/07 00:21:55;;;;;;;26.70;13.57;;;3.40;99.90;;;;;;4095344;28;20039;-68
2023/02/07 00:23:56;;;;;;;28.33;13.73;;;3.40;99.90;;;;;;4096676;28;20039;-68
2023/02/07 00:25:57;;;;;;;30.13;14.40;;;3.30;99.90;;;;;;4091982;28;20034;-67
2023/02/07 00:27:58;;;;;;;32.75;14.95;;;3.20;99.90;;;;;;4095750;28;20031;-67
2023/02/07 00:29:58;;;;;;;30.85;14.20;;;3.10;99.90;;;;;;4096161;28;20109;-68
2023/02/07 00:31:59;;;;;;;29.13;13.98;;;3.10;99.90;;;;;;4095874;28;20039;-68
2023/02/07 00:34:02;;;;;;;31.00;14.85;;;3.10;99.90;;;;;;4096698;28;20042;-67
2023/02/07 00:36:05;;;;;;;34.95;16.73;;;3.00;99.90;;;;;;4093288;28;20073;-68
2023/02/07 00:38:06;;;;;;;31.98;15.88;;;2.80;99.90;;;;;;4096368;28;20435;-68
2023/02/07 00:40:07;;;;;;;37.75;16.25;;;2.80;99.90;;;;;;4094065;28;20047;-68
2023/02/07 00:42:08;;;;;;;39.60;16.88;;;2.70;99.90;;;;;;4095692;28;20090;-68
2023/02/07 00:44:09;;;;;;;36.85;17.70;;;2.70;99.90;;;;;;4095446;28;20518;-67
2023/02/07 00:46:10;;;;;;;30.65;14.80;;;2.50;99.90;;;;;;4095269;28;20672;-68
2023/02/07 00:48:11;;;;;;;31.52;15.43;;;2.50;99.90;;;;;;4095020;28;20047;-67
2023/02/07 00:50:12;;;;;;;34.53;15.20;;;2.30;99.90;;;;;;4077944;29;20418;-68
2023/02/07 00:52:12;;;;;;;30.05;14.63;;;2.10;99.90;;;;;;4098347;28;20032;-68
2023/02/07 00:54:13;;;;;;;28.10;14.15;;;1.90;99.90;;;;;;4095245;28;20528;-67
2023/02/07 00:56:14;;;;;;;35.05;14.40;;;1.80;99.90;;;;;;4094304;28;20109;-68
2023/02/07 00:58:15;;;;;;;31.25;13.88;;;1.70;99.90;;;;;;4093161;28;20083;-67
2023/02/07 01:00:15;;;;;;;26.75;13.43;;;1.70;99.90;;;;;;4094864;28;20142;-68
2023/02/07 01:02:16;;;;;;;30.98;13.70;;;1.70;99.90;;;;;;4096314;28;20055;-66
2023/02/07 01:04:17;;;;;;;26.17;13.50;;;1.80;99.90;;;;;;4090460;28;20455;-66
2023/02/07 01:06:17;;;;;;;22.60;12.00;;;1.90;99.90;;;;;;4094866;28;20547;-67
2023/02/07 01:08:18;;;;;;;24.23;13.10;;;2.00;99.90;;;;;;4090881;28;20095;-67
2023/02/07 01:10:19;;;;;;;24.50;11.80;;;2.10;99.90;;;;;;4092926;28;20460;-67
2023/02/07 01:12:20;;;;;;;26.58;12.93;;;2.20;99.90;;;;;;4087873;28;20174;-67
2023/02/07 01:14:20;;;;;;;26.35;13.55;;;2.30;99.90;;;;;;4098238;28;20136;-67
2023/02/07 01:16:30;;;;;;;31.17;15.52;;;2.30;99.90;;;;;;4094883;28;20035;-67
2023/02/07 01:18:31;;;;;;;29.02;13.18;;;2.40;99.90;;;;;;4095297;28;20039;-67
2023/02/07 01:20:32;;;;;;;30.17;13.70;;;2.50;99.90;;;;;;4090034;28;20038;-67
2023/02/07 01:22:32;;;;;;;27.95;13.85;;;2.50;99.90;;;;;;4089817;28;20043;-67
2023/02/07 01:24:34;;;;;;;29.77;14.48;;;2.60;99.90;;;;;;4079205;28;20054;-68
2023/02/07 01:26:35;;;;;;;30.75;15.38;;;2.60;99.90;;;;;;4093721;28;20635;-68
2023/02/07 01:28:36;;;;;;;32.80;15.35;;;2.60;99.90;;;;;;4088411;28;20059;-67
2023/02/07 01:30:41;;;;;;;35.17;15.93;;;2.70;99.90;;;;;;4084168;28;20051;-67
2023/02/07 01:32:42;;;;;;;31.48;15.15;;;2.70;99.90;;;;;;4073591;29;20094;-67
2023/02/07 01:34:42;;;;;;;30.35;14.68;;;2.80;99.90;;;;;;4092425;28;20039;-68
2023/02/07 01:36:44;;;;;;;27.48;14.48;;;2.80;99.90;;;;;;4087731;28;20032;-68
2023/02/07 01:38:44;;;;;;;35.80;16.60;;;2.90;99.90;;;;;;4094612;28;20043;-68
2023/02/07 01:40:45;;;;;;;36.53;16.15;;;2.90;99.90;;;;;;4095367;28;20474;-68
2023/02/07 01:42:45;;;;;;;35.40;16.48;;;2.90;99.90;;;;;;4090787;28;20054;-67
2023/02/07 01:44:49;;;;;;;29.83;15.65;;;2.90;99.90;;;;;;4089355;28;20514;-68
2023/02/07 01:46:52;;;;;;;38.40;17.02;;;2.90;99.90;;;;;;4093306;28;20043;-67
2023/02/07 01:48:55;;;;;;;39.80;18.38;;;2.90;99.90;;;;;;4094550;28;20051;-68
2023/02/07 01:50:59;;;;;;;43.17;18.30;;;2.90;99.90;;;;;;4094870;28;20482;-68
2023/02/07 01:53:03;;;;;;;36.35;17.73;;;2.90;99.90;;;;;;4093681;28;20054;-68
2023/02/07 01:55:09;;;;;;;40.97;18.27;;;2.90;99.90;;;;;;4090945;28;20047;-68
2023/02/07 01:57:14;;;;;;;35.30;16.80;;;2.80;99.90;;;;;;4093407;28;20043;-67
2023/02/07 01:59:16;;;;;;;37.50;17.80;;;2.90;99.90;;;;;;4094727;28;20039;-67
2023/02/07 02:01:22;;;;;;;29.30;16.45;;;2.80;99.90;;;;;;4093812;28;20759;-68
2023/02/07 02:03:23;;;;;;;30.77;17.20;;;2.80;99.90;;;;;;4093297;28;20055;-67
2023/02/07 02:05:24;;;;;;;34.78;16.98;;;2.80;99.90;;;;;;4089496;28;20039;-69
2023/02/07 02:07:27;;;;;;;38.67;18.00;;;2.80;99.90;;;;;;4092064;28;20406;-69
2023/02/07 02:09:28;;;;;;;31.33;16.92;;;2.80;99.90;;;;;;4091635;28;20071;-68
2023/02/07 02:12:03;;;;;;;36.25;17.52;;;2.80;99.90;;;;;;4074721;29;20533;-68
2023/02/07 02:14:16;;;;;;;30.95;16.88;;;2.70;99.90;;;;;;4085056;28;20024;-68
2023/02/07 02:16:28;;;;;;;30.60;15.75;;;2.70;99.90;;;;;;4088679;28;20032;-68
2023/02/07 02:19:03;;;;;;;35.58;16.80;;;2.60;99.90;;;;;;4090455;28;20039;-68
2023/02/07 02:21:36;;;;;;;33.22;16.10;;;2.60;99.90;;;;;;4090428;28;20024;-69
2023/02/07 02:24:00;;;;;;;28.77;15.15;;;2.50;99.90;;;;;;4092560;28;20038;-68
2023/02/07 02:26:15;;;;;;;33.53;15.30;;;2.60;99.90;;;;;;4093797;28;20027;-69
2023/02/07 02:29:08;;;;;;;29.58;14.60;;;2.60;99.90;;;;;;4090580;28;20502;-69
2023/02/07 02:31:42;;;;;;;28.77;14.30;;;2.60;99.90;;;;;;4094226;28;20575;-69
2023/02/07 02:33:59;;;;;;;28.50;14.30;;;2.60;99.90;;;;;;4087785;28;20122;-69
2023/02/07 02:36:09;;;;;;;30.95;14.70;;;2.60;99.90;;;;;;4091080;28;20380;-69
2023/02/07 02:38:43;;;;;;;26.33;13.70;;;2.70;99.90;;;;;;4076535;29;20099;-68
2023/02/07 02:40:53;;;;;;;27.95;13.55;;;2.60;99.90;;;;;;4091105;28;20049;-68
2023/02/07 02:43:07;;;;;;;24.13;13.45;;;2.70;99.90;;;;;;4089268;28;20042;-68
2023/02/07 02:45:19;;;;;;;32.40;14.15;;;2.70;99.90;;;;;;4094061;28;20032;-70
2023/02/07 02:47:21;;;;;;;26.27;14.10;;;2.70;99.90;;;;;;4094408;28;20658;-68
2023/02/07 02:49:22;;;;;;;28.38;13.82;;;2.60;99.90;;;;;;4092045;28;20039;-69
2023/02/07 02:51:23;;;;;;;26.60;14.35;;;2.60;99.90;;;;;;4092223;28;20050;-67
2023/02/07 02:53:24;;;;;;;28.75;14.98;;;2.60;99.90;;;;;;4098953;28;20031;-68
2023/02/07 02:55:43;;;;;;;32.13;15.05;;;2.60;99.90;;;;;;4093357;28;20127;-68
2023/02/07 02:58:01;;;;;;;25.88;13.75;;;2.60;99.90;;;;;;4091884;28;20048;-68
2023/02/07 03:00:05;;;;;;;25.60;13.63;;;2.60;99.90;;;;;;4088770;28;20032;-69
2023/02/07 03:02:21;;;;;;;25.40;13.27;;;2.60;99.90;;;;;;4094461;28;20031;-68
2023/02/07 03:04:45;;;;;;;28.42;14.18;;;2.50;99.90;;;;;;4093176;28;20102;-67
2023/02/07 03:07:10;;;;;;;28.77;13.80;;;2.50;99.90;;;;;;4089948;28;20428;-68
2023/02/07 03:09:44;;;;;;;29.98;14.30;;;2.50;99.90;;;;;;4091076;28;20039;-69
2023/02/07 03:11:56;;;;;;;28.63;14.00;;;2.50;99.90;;;;;;4071649;29;20530;-68
2023/02/07 03:14:07;;;;;;;;;;;2.40;99.90;;;;;;4079688;29;20621;-68
2023/02/07 03:16:25;;;;;;;26.17;12.88;;;2.40;99.90;;;;;;4074546;29;19942;-68
2023/02/07 03:18:44;;;;;;;26.95;13.50;;;2.40;99.90;;;;;;4075134;29;20917;-67
2023/02/07 03:20:56;;;;;;;28.10;13.13;;;2.40;99.90;;;;;;4079041;29;20035;-68
2023/02/07 03:22:58;;;;;;;23.85;11.80;;;2.40;99.90;;;;;;4074624;29;20040;-68
2023/02/07 03:25:02;;;;;;;26.02;12.95;;;2.30;99.90;;;;;;4060585;29;20072;-68
2023/02/07 03:27:08;;;;;;;21.58;11.93;;;2.40;99.90;;;;;;4081832;29;20039;-68
2023/02/07 03:29:10;;;;;;;24.30;12.90;;;2.30;99.90;;;;;;4072931;29;20377;-69
2023/02/07 03:31:15;;;;;;;29.50;13.33;;;2.30;99.90;;;;;;4076676;29;20443;-68
2023/02/07 03:33:18;;;;;;;23.58;12.05;;;2.30;99.90;;;;;;4078063;29;20268;-68
2023/02/07 03:35:20;;;;;;;;;;;2.30;99.90;;;;;;4078018;29;20389;-68
2023/02/07 03:37:30;;;;;;;27.55;12.95;;;2.20;99.90;;;;;;4079522;29;19919;-68
2023/02/07 03:39:32;;;;;;;20.42;11.85;;;2.20;99.90;;;;;;4078376;29;20039;-68
2023/02/07 03:41:54;;;;;;;27.08;13.18;;;2.20;99.90;;;;;;4078602;29;20044;-68
2023/02/07 03:43:58;;;;;;;22.35;12.57;;;2.10;99.90;;;;;;4079247;29;20068;-68
2023/02/07 03:45:58;;;;;;;25.48;12.25;;;2.10;99.90;;;;;;4079777;29;20042;-68
2023/02/07 03:47:59;;;;;;;24.45;12.63;;;2.10;99.90;;;;;;4075965;29;20454;-68
2023/02/07 03:50:00;;;;;;;25.70;13.43;;;2.10;99.90;;;;;;4079530;29;20048;-67
2023/02/07 03:52:00;;;;;;;27.13;13.63;;;2.10;99.90;;;;;;4077624;29;20040;-68
2023/02/07 03:54:01;;;;;;;22.92;12.07;;;2.20;99.90;;;;;;4077395;29;20043;-67
2023/02/07 03:56:02;;;;;;;22.63;11.98;;;2.10;99.90;;;;;;4078399;29;20047;-70
2023/02/07 03:58:02;;;;;;;23.45;12.00;;;2.10;99.90;;;;;;4079380;29;20124;-68
2023/02/07 04:00:04;;;;;;;22.63;11.93;;;2.10;99.90;;;;;;4078822;29;20404;-68
2023/02/07 04:02:05;;;;;;;25.33;12.85;;;2.10;99.90;;;;;;4081380;29;20126;-68
2023/02/07 04:04:06;;;;;;;31.15;14.13;;;2.20;99.90;;;;;;4072679;29;20066;-68
2023/02/07 04:06:07;;;;;;;25.10;11.23;;;2.10;99.90;;;;;;4076809;29;20036;-68
2023/02/07 04:08:08;;;;;;;22.05;10.98;;;2.20;99.90;;;;;;4078454;29;20055;-68
2023/02/07 04:10:09;;;;;;;22.60;11.65;;;2.10;99.90;;;;;;4080626;28;20106;-68
2023/02/07 04:12:10;;;;;;;23.27;12.02;;;2.10;99.90;;;;;;4090378;28;20463;-68
2023/02/07 04:14:10;;;;;;;22.27;11.77;;;2.00;99.90;;;;;;4089352;28;20416;-68
2023/02/07 04:16:11;;;;;;;22.63;11.43;;;1.90;99.90;;;;;;4093816;28;20027;-68
2023/02/07 04:18:12;;;;;;;27.65;12.38;;;1.70;99.90;;;;;;4095934;28;20047;-68
2023/02/07 04:20:12;;;;;;;27.23;12.80;;;1.60;99.90;;;;;;4094358;28;20135;-68
2023/02/07 04:22:13;;;;;;;27.70;13.75;;;1.40;99.90;;;;;;4096391;28;20043;-68
2023/02/07 04:24:14;;;;;;;25.30;12.98;;;1.30;99.90;;;;;;4096596;28;20049;-68
2023/02/07 04:26:14;;;;;;;27.20;12.13;;;1.20;99.90;;;;;;4093175;28;20044;-68
2023/02/07 04:28:15;;;;;;;22.75;11.68;;;1.00;99.90;;;;;;4092357;28;20115;-68
2023/02/07 04:30:22;;;;;;;22.58;12.35;;;1.00;99.90;;;;;;4092968;28;20028;-68
2023/02/07 04:32:23;;;;;;;23.42;11.45;;;1.00;99.90;;;;;;4095376;28;20039;-67
2023/02/07 04:34:24;;;;;;;24.60;11.60;;;0.90;99.90;;;;;;4095708;28;20090;-67
2023/02/07 04:36:24;;;;;;;26.10;12.75;;;0.80;99.90;;;;;;4095928;28;20031;-68
2023/02/07 04:38:26;;;;;;;24.85;12.27;;;0.70;99.90;;;;;;4095659;28;20125;-67
2023/02/07 04:40:26;;;;;;;20.70;10.27;;;0.70;99.90;;;;;;4091507;28;20098;-68
2023/02/07 04:42:27;;;;;;;21.83;10.43;;;0.80;99.90;;;;;;4083688;28;20039;-67
2023/02/07 04:44:27;;;;;;;21.33;11.00;;;0.80;99.90;;;;;;4085139;28;20039;-67
2023/02/07 04:46:28;;;;;;;20.10;9.85;;;0.90;99.90;;;;;;4089272;28;20032;-67
2023/02/07 04:48:29;;;;;;;19.17;10.25;;;1.00;99.90;;;;;;4094164;28;20031;-68
2023/02/07 04:50:30;;;;;;;20.50;10.23;;;1.00;99.90;;;;;;4091629;28;20043;-68
2023/02/07 04:52:31;;;;;;;23.95;11.45;;;1.00;99.90;;;;;;4078809;29;20040;-67
2023/02/07 04:54:31;;;;;;;23.52;11.90;;;1.00;99.90;;;;;;4095003;28;20043;-68
2023/02/07 04:56:32;;;;;;;26.17;11.27;;;1.10;99.90;;;;;;4092552;28;20049;-68
2023/02/07 04:58:32;;;;;;;21.95;10.63;;;1.10;99.90;;;;;;4094923;28;20039;-68
2023/02/07 05:00:33;;;;;;;25.65;12.10;;;1.10;99.90;;;;;;4092247;29;20167;-68
2023/02/07 05:02:34;;;;;;;20.63;9.80;;;1.20;99.90;;;;;;4095701;28;20042;-68
2023/02/07 05:04:34;;;;;;;20.48;10.70;;;1.30;99.90;;;;;;4089242;28;20561;-67
2023/02/07 05:06:35;;;;;;;24.13;11.45;;;1.20;99.90;;;;;;4067046;29;20040;-68
2023/02/07 05:08:36;;;;;;;19.85;10.73;;;1.30;99.90;;;;;;4092098;28;20044;-68
2023/02/07 05:10:37;;;;;;;21.40;11.27;;;1.30;99.90;;;;;;4086446;28;20055;-68
2023/02/07 05:12:38;;;;;;;22.00;10.87;;;1.30;99.90;;;;;;4091526;28;20070;-68
2023/02/07 05:14:38;;;;;;;24.08;12.13;;;1.40;99.90;;;;;;4094489;28;20067;-68
2023/02/07 05:16:39;;;;;;;24.05;12.05;;;1.40;99.90;;;;;;4092146;28;20148;-68
2023/02/07 05:18:40;;;;;;;22.75;11.30;;;1.50;99.90;;;;;;4093215;28;20150;-67
2023/02/07 05:20:40;;;;;;;24.60;11.88;;;1.40;99.90;;;;;;4093371;28;20045;-68
2023/02/07 05:22:41;;;;;;;20.77;10.50;;;1.40;99.90;;;;;;4095117;28;21092;-68
2023/02/07 05:24:42;;;;;;;20.20;11.00;;;1.50;99.90;;;;;;4096995;28;20028;-68
2023/02/07 05:26:43;;;;;;;24.40;11.38;;;1.50;99.90;;;;;;4093964;28;20085;-68
2023/02/07 05:28:43;;;;;;;24.20;11.82;;;1.50;99.90;;;;;;4092229;28;20082;-67
2023/02/07 05:30:44;;;;;;;24.42;13.13;;;1.50;99.90;;;;;;4094903;28;20136;-68
2023/02/07 05:33:03;;;;;;;29.55;13.00;;;1.40;99.90;;;;;;4095247;29;20043;-67
2023/02/07 05:35:03;;;;;;;24.05;13.32;;;1.40;99.90;;;;;;4095147;28;20035;-68
2023/02/07 05:37:04;;;;;;;31.60;14.50;;;1.40;99.90;;;;;;4092563;28;20438;-68
2023/02/07 05:39:05;;;;;;;30.00;14.90;;;1.20;99.90;;;;;;4093209;28;20035;-67
2023/02/07 05:41:05;;;;;;;28.13;15.10;;;1.00;99.90;;;;;;4093438;28;20027;-68
2023/02/07 05:43:06;;;;;;;32.05;16.17;;;0.80;99.90;;;;;;4094000;28;20035;-67
2023/02/07 05:45:07;;;;;;;32.97;17.15;;;0.50;99.90;;;;;;4094973;28;20063;-69
2023/02/07 05:47:08;;;;;;;32.20;16.35;;;0.30;99.90;;;;;;4097284;28;20043;-68
2023/02/07 05:49:08;;;;;;;31.45;16.73;;;0.10;99.90;;;;;;4094076;28;20032;-68
2023/02/07 05:51:09;;;;;;;33.80;17.63;;;-0.10;99.90;;;;;;4094551;28;20046;-67
2023/02/07 05:53:09;;;;;;;31.33;16.15;;;-0.10;99.90;;;;;;4095590;28;24781;-68
2023/02/07 05:55:11;;;;;;;33.45;16.95;;;-0.10;99.90;;;;;;4094480;28;20167;-68
2023/02/07 05:57:12;;;;;;;34.88;17.38;;;-0.20;99.90;;;;;;4094104;28;20114;-68
2023/02/07 05:59:13;;;;;;;34.88;16.45;;;-0.20;99.90;;;;;;4090168;28;20133;-68
2023/02/07 06:01:13;;;;;;;29.80;15.23;;;-0.20;99.90;;;;;;4089544;29;20035;-68
2023/02/07 06:03:14;;;;;;;32.03;16.55;;;-0.10;99.90;;;;;;4093409;28;20039;-68
2023/02/07 06:05:16;;;;;;;32.25;16.20;;;0.00;99.90;;;;;;4088960;28;20031;-68
2023/02/07 06:07:17;;;;;;;35.40;15.95;;;0.00;99.90;;;;;;4093089;28;20122;-68
2023/02/07 06:09:18;;;;;;;33.47;16.88;;;0.10;99.90;;;;;;4088709;28;20051;-68
2023/02/07 06:11:18;;;;;;;32.17;17.20;;;0.20;99.90;;;;;;4093762;28;20035;-68
2023/02/07 06:13:19;;;;;;;35.88;17.05;;;0.20;99.90;;;;;;4091523;28;20122;-68
2023/02/07 06:15:19;;;;;;;30.45;15.70;;;0.20;99.90;;;;;;4091781;28;20020;-68
2023/02/07 06:17:20;;;;;;;33.30;16.60;;;0.10;99.90;;;;;;4091755;28;20027;-68
2023/02/07 06:19:20;;;;;;;30.08;15.82;;;0.00;99.90;;;;;;4092331;28;20105;-68
2023/02/07 06:21:21;;;;;;;31.58;16.58;;;-0.10;99.90;;;;;;4091886;28;20512;-67
2023/02/07 06:23:21;;;;;;;33.05;15.88;;;-0.20;99.90;;;;;;4087828;28;20570;-67
2023/02/07 06:25:22;;;;;;;28.27;15.40;;;-0.30;99.90;;;;;;4091472;28;20409;-67
2023/02/07 06:27:23;;;;;;;30.10;16.38;;;-0.50;99.90;;;;;;4089970;28;20086;-67
2023/02/07 06:29:23;;;;;;;29.02;15.20;;;-0.50;99.90;;;;;;4090936;28;20023;-67
2023/02/07 06:31:24;;;;;;;29.70;16.20;;;-0.50;99.90;;;;;;4089410;28;20042;-67
2023/02/07 06:33:25;;;;;;;29.35;15.15;;;-0.60;99.90;;;;;;4089507;28;20094;-67
2023/02/07 06:35:25;;;;;;;27.60;14.88;;;-0.60;99.90;;;;;;4090534;28;20559;-67
2023/02/07 06:37:26;;;;;;;25.27;14.70;;;-0.70;99.90;;;;;;4084681;28;20400;-67
2023/02/07 06:39:26;;;;;;;31.70;16.13;;;-0.80;99.90;;;;;;4089144;28;20048;-67
2023/02/07 06:41:27;;;;;;;30.23;16.33;;;-0.90;99.90;;;;;;4085229;28;20569;-67
2023/02/07 06:43:28;;;;;;;31.75;15.60;;;-1.10;99.90;;;;;;4091862;28;20039;-67
2023/02/07 06:45:28;;;;;;;30.90;15.52;;;-1.10;99.90;;;;;;4091535;28;20499;-67
2023/02/07 06:47:29;;;;;;;28.45;15.35;;;-1.20;99.90;;;;;;4094220;28;20391;-68
2023/02/07 06:49:29;;;;;;;28.80;15.85;;;-1.30;99.90;;;;;;4075996;29;20039;-67
2023/02/07 06:51:30;;;;;;;28.88;14.60;;;-1.30;99.90;;;;;;4094850;28;20039;-67
2023/02/07 06:53:31;;;;;;;29.80;15.82;;;-1.30;99.90;;;;;;4093750;28;20098;-68
2023/02/07 06:55:36;;;;;;;30.83;16.10;;;-1.30;99.90;;;;;;4081864;28;20573;-68
2023/02/07 06:57:36;;;;;;;27.50;14.55;;;-1.40;99.90;;;;;;4093050;28;20040;-67
2023/02/07 06:59:37;;;;;;;28.42;14.38;;;-1.30;99.90;;;;;;4093664;28;20066;-68
2023/02/07 07:01:38;;;;;;;31.13;15.60;;;-1.20;99.90;;;;;;4087067;28;20032;-68
2023/02/07 07:03:38;;;;;;;29.40;14.63;;;-1.10;99.90;;;;;;4089863;28;20430;-68
2023/02/07 07:05:39;;;;;;;28.40;15.85;;;-1.00;99.90;;;;;;4092586;28;20074;-68
2023/02/07 07:07:40;;;;;;;30.25;15.88;;;-0.90;99.90;;;;;;4076028;29;20099;-69
2023/02/07 07:09:40;;;;;;;31.17;15.95;;;-1.00;99.90;;;;;;4094502;28;20059;-68
2023/02/07 07:11:42;;;;;;;31.63;16.23;;;-1.10;99.90;;;;;;4093090;29;20492;-68
2023/02/07 07:13:43;;;;;;;30.42;16.20;;;-1.10;99.90;;;;;;4093185;28;20110;-68
2023/02/07 07:15:44;;;;;;;29.70;15.02;;;-1.10;99.90;;;;;;4085905;28;20066;-68
2023/02/07 07:17:45;;;;;;;31.83;16.65;;;-1.10;99.90;;;;;;4086840;28;20050;-69
2023/02/07 07:19:45;;;;;;;28.60;15.25;;;-1.00;99.90;;;;;;4088846;28;20044;-69
2023/02/07 07:21:46;;;;;;;30.20;15.52;;;-1.00;99.90;;;;;;4089241;28;20031;-68
2023/02/07 07:23:46;;;;;;;34.25;17.55;;;-1.00;99.90;;;;;;4088151;28;20118;-68
2023/02/07 07:25:47;;;;;;;34.83;16.67;;;-1.00;99.90;;;;;;4087466;28;20048;-68
2023/02/07 07:27:47;;;;;;;37.45;17.33;;;-0.80;99.90;;;;;;4089032;28;20989;-69
2023/02/07 07:29:48;;;;;;;36.58;16.23;;;-0.70;99.90;;;;;;4089017;28;20079;-69
2023/02/07 07:31:49;;;;;;;33.10;16.15;;;-0.60;99.90;;;;;;4087948;28;20463;-69
2023/02/07 07:33:49;;;;;;;31.20;15.75;;;-0.50;99.90;;;;;;4087089;28;20138;-69
2023/02/07 07:35:55;;;;;;;32.40;16.67;;;-0.50;99.90;;;;;;4085172;28;20704;-69
2023/02/07 07:37:56;;;;;;;33.10;16.80;;;-0.40;99.90;;;;;;4089256;28;20447;-69
2023/02/07 07:39:57;;;;;;;38.40;17.45;;;-0.30;99.90;;;;;;4088132;28;20074;-68
2023/02/07 07:41:57;;;;;;;37.42;18.35;;;-0.30;99.90;;;;;;4087179;28;20514;-69
2023/02/07 07:43:58;;;;;;;31.40;16.42;;;-0.20;99.90;;;;;;4087133;28;20567;-68
2023/02/07 07:46:00;;;;;;;35.42;16.92;;;-0.10;99.90;;;;;;4084580;28;20574;-68
2023/02/07 07:48:00;;;;;;;33.57;16.87;;;0.00;99.90;;;;;;4088015;28;20509;-69
2023/02/07 07:50:01;;;;;;;31.13;16.55;;;0.00;99.90;;;;;;4082489;28;20118;-69
2023/02/07 07:52:01;;;;;;;39.00;18.48;;;0.10;99.90;;;;;;4089643;28;20059;-68
2023/02/07 07:54:02;;;;;;;34.42;17.08;;;0.10;99.90;;;;;;4080457;28;20111;-69
2023/02/07 07:56:03;;;;;;;36.92;18.23;;;0.20;99.90;;;;;;4084652;28;20401;-68
2023/02/07 07:58:04;;;;;;;37.83;17.98;;;0.30;99.90;;;;;;4080545;28;20031;-68
2023/02/07 08:00:05;;;;;;;35.60;17.92;;;0.40;99.90;;;;;;4091014;28;20039;-69
2023/02/07 08:02:05;;;;;;;34.10;17.50;;;0.50;99.90;;;;;;4090962;28;20027;-69
2023/02/07 08:04:06;;;;;;;31.77;16.17;;;0.60;99.90;;;;;;4088412;28;20289;-69
2023/02/07 08:06:07;;;;;;;33.78;17.02;;;0.80;99.90;;;;;;4067790;29;20579;-69
2023/02/07 08:08:07;;;;;;;32.28;17.60;;;1.00;99.90;;;;;;4076378;29;20031;-70
2023/02/07 08:10:09;;;;;;;35.95;17.27;;;1.20;99.90;;;;;;4091845;28;20566;-71
2023/02/07 08:12:09;;;;;;;36.65;17.85;;;1.50;99.90;;;;;;4091533;28;20058;-71
2023/02/07 08:14:10;;;;;;;36.45;17.58;;;1.80;99.90;;;;;;4088627;28;20044;-72
2023/02/07 08:16:10;;;;;;;32.97;16.75;;;2.10;99.90;;;;;;4090325;28;20035;-72
2023/02/07 08:18:11;;;;;;;34.65;17.83;;;2.40;99.90;;;;;;4091073;28;20046;-73
2023/02/07 08:20:11;;;;;;;34.03;16.33;;;2.60;99.90;;;;;;4090183;28;24648;-73
2023/02/07 08:22:13;;;;;;;33.83;16.75;;;2.90;99.90;;;;;;4090376;28;20039;-72
2023/02/07 08:24:14;;;;;;;33.45;17.77;;;3.30;99.90;;;;;;4092656;28;20067;-71
2023/02/07 08:26:14;;;;;;;34.13;18.13;;;3.60;99.90;;;;;;4088487;28;20292;-71
2023/02/07 08:28:15;;;;;;;37.58;19.33;;;3.90;99.90;;;;;;4091012;28;20102;-71
2023/02/07 08:30:17;;;;;;;37.35;18.90;;;4.20;99.90;;;;;;4089222;28;20048;-71
2023/02/07 08:32:18;;;;;;;35.38;19.45;;;4.50;99.90;;;;;;4088777;28;20074;-72
2023/02/07 08:34:22;;;;;;;35.30;18.38;;;4.70;99.90;;;;;;4084457;28;20376;-72
2023/02/07 08:36:23;;;;;;;35.90;18.70;;;5.00;99.90;;;;;;4087809;28;20094;-71
2023/02/07 08:38:24;;;;;;;35.53;18.25;;;5.30;99.90;;;;;;4092053;28;20055;-72
2023/02/07 08:40:25;;;;;;;31.17;16.73;;;5.60;99.90;;;;;;4089678;28;20708;-71
2023/02/07 08:42:26;;;;;;;33.58;17.58;;;5.90;99.90;;;;;;4089918;28;20039;-72
2023/02/07 08:44:27;;;;;;;34.25;18.30;;;6.20;99.90;;;;;;4091192;28;20066;-71
2023/02/07 08:46:28;;;;;;;32.08;17.67;;;6.50;99.90;;;;;;4086867;28;20062;-72
2023/02/07 08:48:28;;;;;;;30.55;17.02;;;6.70;99.90;;;;;;4068336;29;20427;-71
2023/02/07 08:50:29;;;;;;;31.17;17.33;;;6.90;99.90;;;;;;4089831;28;20966;-71
2023/02/07 08:52:29;;;;;;;29.05;16.60;;;7.20;99.90;;;;;;4086924;28;20604;-72
2023/02/07 08:54:30;;;;;;;32.33;17.85;;;7.50;99.90;;;;;;4086290;28;20039;-71
2023/02/07 08:56:30;;;;;;;31.92;18.00;;;7.70;99.90;;;;;;4087562;28;20588;-70
2023/02/07 08:58:31;;;;;;;29.80;16.98;;;8.00;99.90;;;;;;4089962;28;20041;-71
2023/02/07 09:00:34;;;;;;;30.10;17.40;;;8.30;99.90;;;;;;4088060;28;20032;-71
2023/02/07 09:02:34;;;;;;;;;;;8.50;99.90;;;;;;4090875;28;20058;-71
2023/02/07 09:04:35;;;;;;;28.48;17.33;;;8.70;99.90;;;;;;4088979;28;19919;-72
2023/02/07 09:06:35;;;;;;;33.03;18.13;;;9.00;99.90;;;;;;4088523;28;20035;-71
2023/02/07 09:08:36;;;;;;;26.70;15.98;;;9.20;99.90;;;;;;4090999;28;20062;-72
2023/02/07 09:10:37;;;;;;;33.67;17.98;;;9.40;99.90;;;;;;4087401;28;20051;-72
2023/02/07 09:12:37;;;;;;;30.63;17.02;;;9.60;99.90;;;;;;4087081;28;20399;-72
2023/02/07 09:14:39;;;;;;;33.22;17.27;;;9.80;99.90;;;;;;4088945;28;20034;-72
2023/02/07 09:16:39;;;;;;;26.73;15.55;;;10.10;99.90;;;;;;4086581;28;20110;-72
2023/02/07 09:18:40;;;;;;;27.38;15.32;;;10.30;99.90;;;;;;4090432;28;20043;-72
2023/02/07 09:20:42;;;;;;;25.77;15.02;;;10.50;99.90;;;;;;4090327;28;20058;-72
2023/02/07 09:25:03;;;;;;;25.88;15.32;;;10.50;99.90;;;;;;4087407;28;20039;-73
2023/02/07 09:27:03;;;;;;;31.98;16.50;;;10.60;99.90;;;;;;4085006;28;20471;-71
2023/02/07 09:29:10;;;;;;;28.77;15.20;;;10.60;99.90;;;;;;4088166;28;20558;-71
2023/02/07 09:31:13;;;;;;;25.00;14.85;;;10.60;99.90;;;;;;4079013;28;20404;-72
2023/02/07 09:33:13;;;;;;;;;;;10.50;99.90;;;;;;4082943;29;20063;-72
2023/02/07 09:35:14;;;;;;;23.25;13.27;;;10.50;99.90;;;;;;4086912;28;19925;-72
2023/02/07 09:37:15;;;;;;;21.50;12.63;;;10.40;99.90;;;;;;4087275;28;20035;-72
2023/02/07 09:39:15;;;;;;;19.90;11.88;;;10.20;99.90;;;;;;4089309;28;20360;-72
2023/02/07 09:41:33;;;;;;;22.83;12.73;;;10.10;99.90;;;;;;4086693;28;20383;-72
2023/02/07 09:43:42;;;;;;;19.92;12.52;;;9.90;99.90;;;;;;4086332;28;20085;-72
2023/02/07 09:45:47;;;;;;;21.45;12.63;;;9.80;99.90;;;;;;4084028;28;20040;-72
2023/02/07 09:47:51;;;;;;;23.92;13.07;;;9.70;99.90;;;;;;4087925;28;20129;-72
2023/02/07 09:50:23;;;;;;;19.33;10.55;;;9.60;99.90;;;;;;4086208;28;20047;-72
2023/02/07 09:52:34;;;;;;;21.60;11.48;;;9.40;99.90;;;;;;4076000;28;20027;-71
2023/02/07 09:54:39;;;;;;;16.42;9.52;;;9.20;99.90;;;;;;4079949;29;20043;-71
2023/02/07 09:56:40;;;;;;;16.45;8.75;;;9.10;99.90;;;;;;4085915;28;20043;-71
2023/02/07 09:58:49;;;;;;;12.70;7.45;;;9.00;99.90;;;;;;4087478;28;20244;-71
2023/02/07 10:01:03;;;;;;;17.27;7.30;;;8.70;99.90;;;;;;4085336;28;20039;-71
2023/02/07 10:03:20;;;;;;;11.85;7.35;;;8.60;99.90;;;;;;4086388;28;20055;-71
2023/02/07 10:05:33;;;;;;;12.10;7.10;;;8.50;99.90;;;;;;4087571;28;20046;-71
2023/02/07 10:07:34;;;;;;;10.02;6.45;;;8.50;99.90;;;;;;4086853;28;20132;-71
2023/02/07 10:09:39;;;;;;;8.40;5.70;;;8.50;99.90;;;;;;4083835;28;20048;-70
2023/02/07 10:12:06;;;;;;;11.77;6.55;;;8.50;99.90;;;;;;4060341;29;20500;-71
2023/02/07 10:14:32;;;;;;;10.45;6.45;;;8.40;99.90;;;;;;4078959;28;20056;-71
2023/02/07 10:17:02;;;;;;;16.90;7.35;;;8.30;99.90;;;;;;4085161;28;20057;-70
2023/02/07 10:19:18;;;;;;;10.27;5.97;;;8.10;99.90;;;;;;4087716;28;20055;-70
2023/02/07 10:21:41;;;;;;;9.75;6.10;;;8.00;99.90;;;;;;4087217;28;20484;-70
2023/02/07 10:24:09;;;;;;;10.70;5.57;;;7.90;99.90;;;;;;4088836;28;20065;-71
2023/02/07 10:26:10;;;;;;;11.68;6.20;;;7.90;99.90;;;;;;4085960;28;20038;-70
2023/02/07 10:28:14;;;;;;;8.60;5.32;;;7.80;99.90;;;;;;4088335;28;20031;-70
2023/02/07 10:30:27;;;;;;;7.55;4.90;;;7.80;99.90;;;;;;4084469;28;20051;-70
2023/02/07 10:32:32;;;;;;;7.07;4.78;;;7.60;99.90;;;;;;4086132;28;20681;-70
2023/02/07 10:34:37;;;;;;;7.90;4.95;;;7.60;99.90;;;;;;4087655;28;20031;-69
2023/02/07 10:36:43;;;;;;;7.05;4.80;;;7.60;99.90;;;;;;4086088;28;20054;-69
2023/02/07 10:39:03;;;;;;;6.60;4.70;;;7.50;99.90;;;;;;4088435;28;20078;-70
2023/02/07 10:41:21;;;;;;;9.88;5.75;;;7.40;99.90;;;;;;4087328;28;20500;-70